Pires Coelho — CUPM6 — position and weather

sailwx.info

Track history (hours):
 
Tides and Currents Weather Stations Pressure Air Temp Water Temp Dewpoint Dewpoint Depression Visibility Wind Speed Wind Dir Waves Ship Positions

Pires Coelho

Last reported at 2015-Feb-26 20:31 UTC. Time now 2015-Mar-02 20:34 UTC.
Position N 37°08' W 008°32'.

Length 27 m.

Type: Ship. MMSI: 263236000.

Date/timePositionNaut miles runAvg speedWind from/ knotsBaromVisibWave heightAir tempDewpointWater temp
2015-Feb-26 20:31N 37°08' W 008°32'0 0.0
2015-Feb-26 19:31N 37°08' W 008°32'8 8.6
2015-Feb-26 18:33N 36°60' W 008°34'10 9.6
2015-Feb-26 17:33N 36°50' W 008°36'2 1.8
2015-Feb-26 16:19N 36°50' W 008°38'2 2.7
2015-Feb-26 15:32N 36°50' W 008°41'3 2.8
2015-Feb-26 14:29N 36°51' W 008°45'5 0.3
2015-Feb-25 20:28N 36°47' W 008°40'3 3.9
2015-Feb-25 19:33N 36°48' W 008°36'4 4.0
2015-Feb-25 18:33N 36°49' W 008°31'3 2.9
2015-Feb-25 17:33N 36°50' W 008°28'3 3.0
2015-Feb-25 16:33N 36°49' W 008°24'3 3.0
2015-Feb-25 15:28N 36°49' W 008°20'1 1.3
2015-Feb-25 14:33N 36°49' W 008°19'3 3.1
2015-Feb-25 13:33N 36°49' W 008°15'3 3.1
2015-Feb-25 12:33N 36°49' W 008°11'3 3.0
2015-Feb-25 11:26N 36°50' W 008°07'3 2.0
2015-Feb-25 10:03N 36°51' W 008°04'2 3.0
2015-Feb-25 09:26N 36°51' W 008°01'9 0.3
2015-Feb-24 01:09N 36°47' W 008°11'19 7.2
2015-Feb-23 22:30N 36°47' W 008°35'3 3.0
2015-Feb-23 21:32N 36°48' W 008°38'3 2.9
2015-Feb-23 20:33N 36°50' W 008°39'3 2.6
2015-Feb-23 19:33N 36°51' W 008°42'2 1.8
2015-Feb-23 18:29N 36°51' W 008°44'9 0.5
2015-Feb-22 23:16N 36°57' W 008°35'710.1
2015-Feb-22 22:33N 37°04' W 008°33'4 3.6
2015-Feb-22 21:22N 37°08' W 008°32'0 0.0
2015-Feb-22 20:22N 37°08' W 008°32'1 0.9
2015-Feb-22 19:33N 37°07' W 008°32'9 9.3
2015-Feb-22 18:33N 36°58' W 008°29'8 7.8
2015-Feb-22 17:28N 36°50' W 008°27'2 2.5
2015-Feb-22 16:28N 36°50' W 008°24'3 3.0
2015-Feb-22 15:33N 36°49' W 008°21'4 1.9
2015-Feb-22 13:26N 36°48' W 008°16'2 2.8
2015-Feb-22 12:33N 36°48' W 008°13'3 2.7
2015-Feb-22 11:33N 36°49' W 008°09'8 2.6
2015-Feb-22 08:33N 36°51' W 007°60'25 2.2
2015-Feb-21 21:27N 36°47' W 008°30'6 5.5
2015-Feb-21 20:23N 36°48' W 008°38'4 4.2
2015-Feb-21 19:33N 36°50' W 008°42'3 2.8
2015-Feb-21 18:32N 36°51' W 008°45'5 0.3
2015-Feb-20 23:29N 36°46' W 008°42'15 7.6
2015-Feb-20 21:33N 36°60' W 008°34'9 8.5
2015-Feb-20 20:32N 37°08' W 008°32'0 0.0
2015-Feb-20 19:32N 37°08' W 008°32'0 0.0
2015-Feb-20 18:30N 37°08' W 008°32'0 0.0
2015-Feb-20 17:31N 37°08' W 008°32'0 0.0
2015-Feb-20 16:31N 37°08' W 008°32'0 0.0
2015-Feb-20 15:27N 37°08' W 008°32'0 0.0
2015-Feb-20 14:29N 37°08' W 008°32'0 0.0
2015-Feb-20 13:33N 37°08' W 008°32'0 0.0
2015-Feb-20 12:33N 37°08' W 008°32'0 0.0
2015-Feb-20 11:33N 37°08' W 008°32'0 0.0
2015-Feb-20 10:25N 37°08' W 008°32'0 0.0
2015-Feb-20 07:31N 37°08' W 008°32'0 0.0
2015-Feb-20 06:31N 37°08' W 008°32'0 0.0
2015-Feb-20 05:33N 37°08' W 008°32'0 0.0
2015-Feb-20 04:33N 37°08' W 008°32'8 8.3
2015-Feb-20 03:33N 37°00' W 008°33'10 9.5
2015-Feb-20 02:33N 36°51' W 008°38'3 3.0
2015-Feb-20 01:28N 36°48' W 008°39'2 1.9
2015-Feb-20 00:31N 36°50' W 008°39'3 3.5
2015-Feb-19 23:33N 36°53' W 008°39'1010.0
2015-Feb-19 22:32N 36°58' W 008°50'9 1.5
2015-Feb-19 16:33N 36°49' W 008°52'0 0.2
2015-Feb-19 15:10N 36°49' W 008°52'3 3.2
2015-Feb-19 14:13N 36°52' W 008°51'2 1.9
2015-Feb-19 13:21N 36°50' W 008°51'0 0.1
2015-Feb-19 08:07N 36°51' W 008°51'1 2.3
2015-Feb-19 07:29N 36°49' W 008°51'4 0.2
2015-Feb-18 14:14N 36°51' W 008°47'2 2.9
2015-Feb-18 13:33N 36°51' W 008°44'3 2.9
2015-Feb-18 12:34N 36°51' W 008°41'2 2.1
2015-Feb-18 11:33N 36°52' W 008°38'2 2.2
2015-Feb-18 10:33N 36°51' W 008°39'3 2.7
2015-Feb-18 09:33N 36°50' W 008°43'3 2.8
2015-Feb-18 08:33N 36°50' W 008°39'3 2.9
2015-Feb-18 07:34N 36°49' W 008°36'5 5.3
2015-Feb-18 06:33N 36°48' W 008°29'1010.0
2015-Feb-18 05:33N 36°47' W 008°17'6 5.4
2015-Feb-18 04:30N 36°47' W 008°10'3 3.0
2015-Feb-18 03:34N 36°47' W 008°06'3 0.2
2015-Feb-17 11:20N 36°49' W 008°09'2 2.2
2015-Feb-17 10:18N 36°50' W 008°06'2 3.0
2015-Feb-17 09:30N 36°50' W 008°03'4 3.0
2015-Feb-17 08:12N 36°51' W 007°58'8 2.6
2015-Feb-17 05:10N 36°56' W 008°06'5 8.6
2015-Feb-17 04:33N 36°58' W 008°12'10 9.3
2015-Feb-17 03:31N 37°03' W 008°23'8 8.6
2015-Feb-17 02:32N 37°08' W 008°32'0 0.1
2015-Feb-17 01:18N 37°08' W 008°32'0 0.0
2015-Feb-17 00:32N 37°08' W 008°32'0 0.0
2015-Feb-16 23:05N 37°08' W 008°32'3 5.4
2015-Feb-16 22:33N 37°05' W 008°32'10 9.8
2015-Feb-16 21:33N 36°56' W 008°36'  
Track history (hours):
 
Tides and Currents Weather Stations Pressure Air Temp Water Temp Dewpoint Dewpoint Depression Visibility Wind Speed Wind Dir Waves Ship Positions

Pires Coelho

Last reported at 2015-Feb-26 20:31 UTC. Time now 2015-Mar-02 20:34 UTC.
Position N 37°08' W 008°32'.

Length 27 m.

Type: Ship. MMSI: 263236000.

Date/timePositionNaut miles runAvg speedWind from/ knotsBaromVisibWave heightAir tempDewpointWater temp
2015-Feb-26 20:31N 37°08' W 008°32'0 0.0
2015-Feb-26 19:31N 37°08' W 008°32'8 8.6
2015-Feb-26 18:33N 36°60' W 008°34'10 9.6
2015-Feb-26 17:33N 36°50' W 008°36'2 1.8
2015-Feb-26 16:19N 36°50' W 008°38'2 2.7
2015-Feb-26 15:32N 36°50' W 008°41'3 2.8
2015-Feb-26 14:29N 36°51' W 008°45'5 0.3
2015-Feb-25 20:28N 36°47' W 008°40'3 3.9
2015-Feb-25 19:33N 36°48' W 008°36'4 4.0
2015-Feb-25 18:33N 36°49' W 008°31'3 2.9
2015-Feb-25 17:33N 36°50' W 008°28'3 3.0
2015-Feb-25 16:33N 36°49' W 008°24'3 3.0
2015-Feb-25 15:28N 36°49' W 008°20'1 1.3
2015-Feb-25 14:33N 36°49' W 008°19'3 3.1
2015-Feb-25 13:33N 36°49' W 008°15'3 3.1
2015-Feb-25 12:33N 36°49' W 008°11'3 3.0
2015-Feb-25 11:26N 36°50' W 008°07'3 2.0
2015-Feb-25 10:03N 36°51' W 008°04'2 3.0
2015-Feb-25 09:26N 36°51' W 008°01'9 0.3
2015-Feb-24 01:09N 36°47' W 008°11'19 7.2
2015-Feb-23 22:30N 36°47' W 008°35'3 3.0
2015-Feb-23 21:32N 36°48' W 008°38'3 2.9
2015-Feb-23 20:33N 36°50' W 008°39'3 2.6
2015-Feb-23 19:33N 36°51' W 008°42'2 1.8
2015-Feb-23 18:29N 36°51' W 008°44'9 0.5
2015-Feb-22 23:16N 36°57' W 008°35'710.1
2015-Feb-22 22:33N 37°04' W 008°33'4 3.6
2015-Feb-22 21:22N 37°08' W 008°32'0 0.0
2015-Feb-22 20:22N 37°08' W 008°32'1 0.9
2015-Feb-22 19:33N 37°07' W 008°32'9 9.3
2015-Feb-22 18:33N 36°58' W 008°29'8 7.8
2015-Feb-22 17:28N 36°50' W 008°27'2 2.5
2015-Feb-22 16:28N 36°50' W 008°24'3 3.0
2015-Feb-22 15:33N 36°49' W 008°21'4 1.9
2015-Feb-22 13:26N 36°48' W 008°16'2 2.8
2015-Feb-22 12:33N 36°48' W 008°13'3 2.7
2015-Feb-22 11:33N 36°49' W 008°09'8 2.6
2015-Feb-22 08:33N 36°51' W 007°60'25 2.2
2015-Feb-21 21:27N 36°47' W 008°30'6 5.5
2015-Feb-21 20:23N 36°48' W 008°38'4 4.2
2015-Feb-21 19:33N 36°50' W 008°42'3 2.8
2015-Feb-21 18:32N 36°51' W 008°45'5 0.3
2015-Feb-20 23:29N 36°46' W 008°42'15 7.6
2015-Feb-20 21:33N 36°60' W 008°34'9 8.5
2015-Feb-20 20:32N 37°08' W 008°32'0 0.0
2015-Feb-20 19:32N 37°08' W 008°32'0 0.0
2015-Feb-20 18:30N 37°08' W 008°32'0 0.0
2015-Feb-20 17:31N 37°08' W 008°32'0 0.0
2015-Feb-20 16:31N 37°08' W 008°32'0 0.0
2015-Feb-20 15:27N 37°08' W 008°32'0 0.0
2015-Feb-20 14:29N 37°08' W 008°32'0 0.0
2015-Feb-20 13:33N 37°08' W 008°32'0 0.0
2015-Feb-20 12:33N 37°08' W 008°32'0 0.0
2015-Feb-20 11:33N 37°08' W 008°32'0 0.0
2015-Feb-20 10:25N 37°08' W 008°32'0 0.0
2015-Feb-20 07:31N 37°08' W 008°32'0 0.0
2015-Feb-20 06:31N 37°08' W 008°32'0 0.0
2015-Feb-20 05:33N 37°08' W 008°32'0 0.0
2015-Feb-20 04:33N 37°08' W 008°32'8 8.3
2015-Feb-20 03:33N 37°00' W 008°33'10 9.5
2015-Feb-20 02:33N 36°51' W 008°38'3 3.0
2015-Feb-20 01:28N 36°48' W 008°39'2 1.9
2015-Feb-20 00:31N 36°50' W 008°39'3 3.5
2015-Feb-19 23:33N 36°53' W 008°39'1010.0
2015-Feb-19 22:32N 36°58' W 008°50'9 1.5
2015-Feb-19 16:33N 36°49' W 008°52'0 0.2
2015-Feb-19 15:10N 36°49' W 008°52'3 3.2
2015-Feb-19 14:13N 36°52' W 008°51'2 1.9
2015-Feb-19 13:21N 36°50' W 008°51'0 0.1
2015-Feb-19 08:07N 36°51' W 008°51'1 2.3
2015-Feb-19 07:29N 36°49' W 008°51'4 0.2
2015-Feb-18 14:14N 36°51' W 008°47'2 2.9
2015-Feb-18 13:33N 36°51' W 008°44'3 2.9
2015-Feb-18 12:34N 36°51' W 008°41'2 2.1
2015-Feb-18 11:33N 36°52' W 008°38'2 2.2
2015-Feb-18 10:33N 36°51' W 008°39'3 2.7
2015-Feb-18 09:33N 36°50' W 008°43'3 2.8
2015-Feb-18 08:33N 36°50' W 008°39'3 2.9
2015-Feb-18 07:34N 36°49' W 008°36'5 5.3
2015-Feb-18 06:33N 36°48' W 008°29'1010.0
2015-Feb-18 05:33N 36°47' W 008°17'6 5.4
2015-Feb-18 04:30N 36°47' W 008°10'3 3.0
2015-Feb-18 03:34N 36°47' W 008°06'3 0.2
2015-Feb-17 11:20N 36°49' W 008°09'2 2.2
2015-Feb-17 10:18N 36°50' W 008°06'2 3.0
2015-Feb-17 09:30N 36°50' W 008°03'4 3.0
2015-Feb-17 08:12N 36°51' W 007°58'8 2.6
2015-Feb-17 05:10N 36°56' W 008°06'5 8.6
2015-Feb-17 04:33N 36°58' W 008°12'10 9.3
2015-Feb-17 03:31N 37°03' W 008°23'8 8.6
2015-Feb-17 02:32N 37°08' W 008°32'0 0.1
2015-Feb-17 01:18N 37°08' W 008°32'0 0.0
2015-Feb-17 00:32N 37°08' W 008°32'0 0.0
2015-Feb-16 23:05N 37°08' W 008°32'3 5.4
2015-Feb-16 22:33N 37°05' W 008°32'10 9.8
2015-Feb-16 21:33N 36°56' W 008°36'  

Dump ship's entire track history